sensor_id;sensor_type;location;lat;lon;timestamp;P1;durP1;ratioP1;P2;durP2;ratioP2
44048;SDS011;29717;47.028;15.470;2024-01-15T00:00:50;82.93;;;50.17;;
44048;SDS011;29717;47.028;15.470;2024-01-15T00:03:17;89.37;;;49.83;;
44048;SDS011;29717;47.028;15.470;2024-01-15T00:05:43;82.00;;;50.80;;
44048;SDS011;29717;47.028;15.470;2024-01-15T00:08:10;92.00;;;52.87;;
44048;SDS011;29717;47.028;15.470;2024-01-15T00:10:38;91.87;;;52.63;;
44048;SDS011;29717;47.028;15.470;2024-01-15T00:13:06;89.40;;;51.20;;
44048;SDS011;29717;47.028;15.470;2024-01-15T00:15:33;91.53;;;51.53;;
44048;SDS011;29717;47.028;15.470;2024-01-15T00:17:59;92.07;;;50.77;;
44048;SDS011;29717;47.028;15.470;2024-01-15T00:20:26;87.87;;;50.70;;
44048;SDS011;29717;47.028;15.470;2024-01-15T00:22:53;91.03;;;49.97;;
44048;SDS011;29717;47.028;15.470;2024-01-15T00:25:20;92.17;;;53.37;;
44048;SDS011;29717;47.028;15.470;2024-01-15T00:27:48;101.83;;;55.50;;
44048;SDS011;29717;47.028;15.470;2024-01-15T00:30:15;85.57;;;50.20;;
44048;SDS011;29717;47.028;15.470;2024-01-15T00:32:41;94.27;;;54.17;;
44048;SDS011;29717;47.028;15.470;2024-01-15T00:35:08;90.33;;;51.60;;
44048;SDS011;29717;47.028;15.470;2024-01-15T00:37:35;93.37;;;52.50;;
44048;SDS011;29717;47.028;15.470;2024-01-15T00:40:02;83.43;;;50.43;;
44048;SDS011;29717;47.028;15.470;2024-01-15T00:42:29;98.40;;;54.00;;
44048;SDS011;29717;47.028;15.470;2024-01-15T00:44:57;93.63;;;52.07;;
44048;SDS011;29717;47.028;15.470;2024-01-15T00:47:24;106.37;;;52.77;;
44048;SDS011;29717;47.028;15.470;2024-01-15T00:49:50;93.30;;;50.87;;
44048;SDS011;29717;47.028;15.470;2024-01-15T00:52:17;98.83;;;54.03;;
44048;SDS011;29717;47.028;15.470;2024-01-15T00:54:44;92.00;;;53.87;;
44048;SDS011;29717;47.028;15.470;2024-01-15T00:57:10;89.60;;;50.00;;
44048;SDS011;29717;47.028;15.470;2024-01-15T00:59:38;100.30;;;54.13;;
44048;SDS011;29717;47.028;15.470;2024-01-15T01:02:06;88.80;;;51.13;;
44048;SDS011;29717;47.028;15.470;2024-01-15T01:04:33;85.17;;;49.03;;
44048;SDS011;29717;47.028;15.470;2024-01-15T01:06:59;99.17;;;49.83;;
44048;SDS011;29717;47.028;15.470;2024-01-15T01:09:26;85.17;;;49.70;;
44048;SDS011;29717;47.028;15.470;2024-01-15T01:11:55;86.87;;;49.10;;
44048;SDS011;29717;47.028;15.470;2024-01-15T01:14:22;91.87;;;50.93;;
44048;SDS011;29717;47.028;15.470;2024-01-15T01:16:49;90.63;;;49.17;;
44048;SDS011;29717;47.028;15.470;2024-01-15T01:19:17;86.73;;;49.40;;
44048;SDS011;29717;47.028;15.470;2024-01-15T01:21:44;86.70;;;49.00;;
44048;SDS011;29717;47.028;15.470;2024-01-15T01:24:10;87.83;;;50.50;;
44048;SDS011;29717;47.028;15.470;2024-01-15T01:26:37;90.33;;;49.33;;
44048;SDS011;29717;47.028;15.470;2024-01-15T01:29:04;91.63;;;50.07;;
44048;SDS011;29717;47.028;15.470;2024-01-15T01:31:31;90.90;;;50.90;;
44048;SDS011;29717;47.028;15.470;2024-01-15T01:33:57;90.80;;;52.63;;
44048;SDS011;29717;47.028;15.470;2024-01-15T01:36:29;92.50;;;52.33;;
44048;SDS011;29717;47.028;15.470;2024-01-15T01:38:57;86.30;;;50.40;;
44048;SDS011;29717;47.028;15.470;2024-01-15T01:41:24;86.50;;;49.00;;
44048;SDS011;29717;47.028;15.470;2024-01-15T01:43:51;91.93;;;51.80;;
44048;SDS011;29717;47.028;15.470;2024-01-15T01:46:18;94.27;;;52.53;;
44048;SDS011;29717;47.028;15.470;2024-01-15T01:48:45;93.53;;;52.40;;
44048;SDS011;29717;47.028;15.470;2024-01-15T01:51:11;103.47;;;52.40;;
44048;SDS011;29717;47.028;15.470;2024-01-15T01:53:40;89.60;;;50.07;;
44048;SDS011;29717;47.028;15.470;2024-01-15T01:56:06;92.83;;;51.17;;
44048;SDS011;29717;47.028;15.470;2024-01-15T01:58:33;94.03;;;50.33;;
44048;SDS011;29717;47.028;15.470;2024-01-15T02:01:00;95.07;;;52.33;;
44048;SDS011;29717;47.028;15.470;2024-01-15T02:03:27;105.60;;;53.03;;
44048;SDS011;29717;47.028;15.470;2024-01-15T02:05:54;98.57;;;51.23;;
44048;SDS011;29717;47.028;15.470;2024-01-15T02:08:21;92.77;;;52.63;;
44048;SDS011;29717;47.028;15.470;2024-01-15T02:10:48;108.87;;;51.73;;
44048;SDS011;29717;47.028;15.470;2024-01-15T02:13:15;98.00;;;51.70;;
44048;SDS011;29717;47.028;15.470;2024-01-15T02:15:42;101.10;;;52.30;;
44048;SDS011;29717;47.028;15.470;2024-01-15T02:18:09;89.27;;;49.30;;
44048;SDS011;29717;47.028;15.470;2024-01-15T02:20:35;96.70;;;50.93;;
44048;SDS011;29717;47.028;15.470;2024-01-15T02:23:11;97.13;;;51.43;;
44048;SDS011;29717;47.028;15.470;2024-01-15T02:25:38;92.60;;;51.27;;
44048;SDS011;29717;47.028;15.470;2024-01-15T02:28:06;91.57;;;49.33;;
44048;SDS011;29717;47.028;15.470;2024-01-15T02:30:32;86.07;;;49.13;;
44048;SDS011;29717;47.028;15.470;2024-01-15T02:33:01;97.10;;;51.23;;
44048;SDS011;29717;47.028;15.470;2024-01-15T02:35:27;86.97;;;49.03;;
44048;SDS011;29717;47.028;15.470;2024-01-15T02:37:54;86.13;;;48.87;;
44048;SDS011;29717;47.028;15.470;2024-01-15T02:40:22;94.00;;;51.73;;
44048;SDS011;29717;47.028;15.470;2024-01-15T02:42:49;94.17;;;50.13;;
44048;SDS011;29717;47.028;15.470;2024-01-15T02:45:16;91.50;;;51.10;;
44048;SDS011;29717;47.028;15.470;2024-01-15T02:47:43;86.33;;;48.10;;
44048;SDS011;29717;47.028;15.470;2024-01-15T02:50:10;89.57;;;48.13;;
44048;SDS011;29717;47.028;15.470;2024-01-15T02:52:37;91.73;;;50.70;;
44048;SDS011;29717;47.028;15.470;2024-01-15T02:55:04;89.07;;;50.40;;
44048;SDS011;29717;47.028;15.470;2024-01-15T02:57:32;87.50;;;49.80;;
44048;SDS011;29717;47.028;15.470;2024-01-15T02:59:59;89.47;;;49.70;;
44048;SDS011;29717;47.028;15.470;2024-01-15T03:02:26;88.90;;;50.57;;
44048;SDS011;29717;47.028;15.470;2024-01-15T03:04:53;95.13;;;52.83;;
44048;SDS011;29717;47.028;15.470;2024-01-15T03:07:19;96.27;;;51.70;;
44048;SDS011;29717;47.028;15.470;2024-01-15T03:09:46;93.07;;;52.00;;
44048;SDS011;29717;47.028;15.470;2024-01-15T03:12:13;96.47;;;54.03;;
44048;SDS011;29717;47.028;15.470;2024-01-15T03:14:41;99.57;;;54.07;;
44048;SDS011;29717;47.028;15.470;2024-01-15T03:17:08;103.83;;;55.07;;
44048;SDS011;29717;47.028;15.470;2024-01-15T03:19:36;97.00;;;53.07;;
44048;SDS011;29717;47.028;15.470;2024-01-15T03:22:03;93.77;;;52.57;;
44048;SDS011;29717;47.028;15.470;2024-01-15T03:24:31;90.70;;;49.83;;
44048;SDS011;29717;47.028;15.470;2024-01-15T03:26:58;92.60;;;50.17;;
44048;SDS011;29717;47.028;15.470;2024-01-15T03:29:25;86.87;;;49.80;;
44048;SDS011;29717;47.028;15.470;2024-01-15T03:31:53;90.87;;;48.60;;
44048;SDS011;29717;47.028;15.470;2024-01-15T03:34:20;90.30;;;49.13;;
44048;SDS011;29717;47.028;15.470;2024-01-15T03:36:47;93.20;;;51.47;;
44048;SDS011;29717;47.028;15.470;2024-01-15T03:39:13;88.10;;;50.00;;
44048;SDS011;29717;47.028;15.470;2024-01-15T03:41:40;96.50;;;51.70;;
44048;SDS011;29717;47.028;15.470;2024-01-15T03:44:06;95.97;;;50.70;;
44048;SDS011;29717;47.028;15.470;2024-01-15T03:46:33;93.23;;;50.80;;
44048;SDS011;29717;47.028;15.470;2024-01-15T03:49:01;91.13;;;50.63;;
44048;SDS011;29717;47.028;15.470;2024-01-15T03:51:27;102.20;;;52.80;;
44048;SDS011;29717;47.028;15.470;2024-01-15T03:53:54;97.20;;;50.93;;
44048;SDS011;29717;47.028;15.470;2024-01-15T03:56:21;98.60;;;52.13;;
44048;SDS011;29717;47.028;15.470;2024-01-15T03:58:48;97.70;;;52.87;;
44048;SDS011;29717;47.028;15.470;2024-01-15T04:01:14;102.07;;;53.60;;
44048;SDS011;29717;47.028;15.470;2024-01-15T04:03:41;100.70;;;51.33;;
44048;SDS011;29717;47.028;15.470;2024-01-15T04:06:09;97.97;;;49.67;;
44048;SDS011;29717;47.028;15.470;2024-01-15T04:08:36;96.67;;;50.30;;
44048;SDS011;29717;47.028;15.470;2024-01-15T04:11:03;98.63;;;51.67;;
44048;SDS011;29717;47.028;15.470;2024-01-15T04:13:32;92.13;;;50.40;;
44048;SDS011;29717;47.028;15.470;2024-01-15T04:15:59;89.83;;;48.63;;
44048;SDS011;29717;47.028;15.470;2024-01-15T04:18:26;95.13;;;49.20;;
44048;SDS011;29717;47.028;15.470;2024-01-15T04:20:53;94.10;;;50.30;;
44048;SDS011;29717;47.028;15.470;2024-01-15T04:23:21;94.20;;;51.00;;
44048;SDS011;29717;47.028;15.470;2024-01-15T04:25:48;88.83;;;49.73;;
44048;SDS011;29717;47.028;15.470;2024-01-15T04:28:14;92.37;;;50.20;;
44048;SDS011;29717;47.028;15.470;2024-01-15T04:30:41;89.10;;;48.07;;
44048;SDS011;29717;47.028;15.470;2024-01-15T04:33:08;94.07;;;50.13;;
44048;SDS011;29717;47.028;15.470;2024-01-15T04:35:35;80.50;;;46.63;;
44048;SDS011;29717;47.028;15.470;2024-01-15T04:38:01;90.27;;;49.33;;
44048;SDS011;29717;47.028;15.470;2024-01-15T04:40:29;89.93;;;48.10;;
44048;SDS011;29717;47.028;15.470;2024-01-15T04:42:56;87.80;;;47.53;;
44048;SDS011;29717;47.028;15.470;2024-01-15T04:45:23;82.93;;;47.37;;
44048;SDS011;29717;47.028;15.470;2024-01-15T04:47:53;86.03;;;48.60;;
44048;SDS011;29717;47.028;15.470;2024-01-15T04:50:21;89.00;;;48.60;;
44048;SDS011;29717;47.028;15.470;2024-01-15T04:52:48;83.33;;;47.07;;
44048;SDS011;29717;47.028;15.470;2024-01-15T04:55:15;82.57;;;46.77;;
44048;SDS011;29717;47.028;15.470;2024-01-15T04:57:43;90.20;;;46.63;;
44048;SDS011;29717;47.028;15.470;2024-01-15T05:00:10;85.73;;;46.70;;
44048;SDS011;29717;47.028;15.470;2024-01-15T05:02:38;80.83;;;45.43;;
44048;SDS011;29717;47.028;15.470;2024-01-15T05:05:05;83.47;;;47.50;;
44048;SDS011;29717;47.028;15.470;2024-01-15T05:07:32;84.83;;;46.23;;
44048;SDS011;29717;47.028;15.470;2024-01-15T05:09:58;84.10;;;46.90;;
44048;SDS011;29717;47.028;15.470;2024-01-15T05:12:25;84.00;;;45.83;;
44048;SDS011;29717;47.028;15.470;2024-01-15T05:14:53;80.30;;;47.33;;
44048;SDS011;29717;47.028;15.470;2024-01-15T05:17:20;75.97;;;44.50;;
44048;SDS011;29717;47.028;15.470;2024-01-15T05:19:46;77.73;;;44.33;;
44048;SDS011;29717;47.028;15.470;2024-01-15T05:22:13;78.93;;;45.27;;
44048;SDS011;29717;47.028;15.470;2024-01-15T05:24:40;80.50;;;44.20;;
44048;SDS011;29717;47.028;15.470;2024-01-15T05:27:07;74.07;;;45.63;;
44048;SDS011;29717;47.028;15.470;2024-01-15T05:29:33;77.93;;;43.77;;
44048;SDS011;29717;47.028;15.470;2024-01-15T05:32:02;77.17;;;44.90;;
44048;SDS011;29717;47.028;15.470;2024-01-15T05:34:28;72.67;;;43.53;;
44048;SDS011;29717;47.028;15.470;2024-01-15T05:36:54;76.97;;;43.00;;
44048;SDS011;29717;47.028;15.470;2024-01-15T05:39:21;74.30;;;44.43;;
44048;SDS011;29717;47.028;15.470;2024-01-15T05:41:47;76.37;;;43.50;;
44048;SDS011;29717;47.028;15.470;2024-01-15T05:44:14;71.47;;;42.27;;
44048;SDS011;29717;47.028;15.470;2024-01-15T05:46:41;69.40;;;43.73;;
44048;SDS011;29717;47.028;15.470;2024-01-15T05:49:09;70.03;;;41.60;;
44048;SDS011;29717;47.028;15.470;2024-01-15T05:51:36;69.63;;;42.43;;
44048;SDS011;29717;47.028;15.470;2024-01-15T05:54:03;75.70;;;41.37;;
44048;SDS011;29717;47.028;15.470;2024-01-15T05:56:29;74.90;;;44.00;;
44048;SDS011;29717;47.028;15.470;2024-01-15T05:58:56;72.30;;;42.33;;
44048;SDS011;29717;47.028;15.470;2024-01-15T06:01:23;77.20;;;44.60;;
44048;SDS011;29717;47.028;15.470;2024-01-15T06:03:49;73.63;;;42.43;;
44048;SDS011;29717;47.028;15.470;2024-01-15T06:06:18;73.17;;;43.53;;
44048;SDS011;29717;47.028;15.470;2024-01-15T06:08:44;76.67;;;44.30;;
44048;SDS011;29717;47.028;15.470;2024-01-15T06:11:11;74.17;;;44.70;;
44048;SDS011;29717;47.028;15.470;2024-01-15T06:13:38;73.83;;;43.57;;
44048;SDS011;29717;47.028;15.470;2024-01-15T06:16:11;82.63;;;45.43;;
44048;SDS011;29717;47.028;15.470;2024-01-15T06:18:38;77.07;;;44.57;;
44048;SDS011;29717;47.028;15.470;2024-01-15T06:21:05;77.43;;;43.77;;
44048;SDS011;29717;47.028;15.470;2024-01-15T06:23:33;74.33;;;43.53;;
44048;SDS011;29717;47.028;15.470;2024-01-15T06:26:00;75.13;;;44.23;;
44048;SDS011;29717;47.028;15.470;2024-01-15T06:28:28;70.77;;;41.73;;
44048;SDS011;29717;47.028;15.470;2024-01-15T06:30:55;72.40;;;42.03;;
44048;SDS011;29717;47.028;15.470;2024-01-15T06:33:22;70.97;;;42.47;;
44048;SDS011;29717;47.028;15.470;2024-01-15T06:35:48;77.30;;;43.17;;
44048;SDS011;29717;47.028;15.470;2024-01-15T06:38:15;76.07;;;42.97;;
44048;SDS011;29717;47.028;15.470;2024-01-15T06:40:43;72.03;;;42.53;;
44048;SDS011;29717;47.028;15.470;2024-01-15T06:43:13;78.77;;;45.70;;
44048;SDS011;29717;47.028;15.470;2024-01-15T06:45:39;77.40;;;45.37;;
44048;SDS011;29717;47.028;15.470;2024-01-15T06:48:06;75.60;;;45.57;;
44048;SDS011;29717;47.028;15.470;2024-01-15T06:50:34;78.00;;;46.30;;
44048;SDS011;29717;47.028;15.470;2024-01-15T06:53:02;76.67;;;43.57;;
44048;SDS011;29717;47.028;15.470;2024-01-15T06:55:29;72.90;;;44.13;;
44048;SDS011;29717;47.028;15.470;2024-01-15T06:57:57;74.93;;;43.87;;
44048;SDS011;29717;47.028;15.470;2024-01-15T07:00:23;75.97;;;43.73;;
44048;SDS011;29717;47.028;15.470;2024-01-15T07:02:50;71.10;;;43.63;;
44048;SDS011;29717;47.028;15.470;2024-01-15T07:05:17;73.50;;;43.60;;
44048;SDS011;29717;47.028;15.470;2024-01-15T07:07:44;77.60;;;46.80;;
44048;SDS011;29717;47.028;15.470;2024-01-15T07:10:10;73.20;;;42.93;;
44048;SDS011;29717;47.028;15.470;2024-01-15T07:12:37;74.03;;;44.40;;
44048;SDS011;29717;47.028;15.470;2024-01-15T07:15:05;74.90;;;44.43;;
44048;SDS011;29717;47.028;15.470;2024-01-15T07:17:33;74.87;;;44.43;;
44048;SDS011;29717;47.028;15.470;2024-01-15T07:20:00;74.47;;;43.27;;
44048;SDS011;29717;47.028;15.470;2024-01-15T07:22:26;75.43;;;46.27;;
44048;SDS011;29717;47.028;15.470;2024-01-15T07:24:53;79.40;;;47.70;;
44048;SDS011;29717;47.028;15.470;2024-01-15T07:27:20;73.93;;;45.40;;
44048;SDS011;29717;47.028;15.470;2024-01-15T07:29:46;81.57;;;46.83;;
44048;SDS011;29717;47.028;15.470;2024-01-15T07:32:15;71.03;;;44.33;;
44048;SDS011;29717;47.028;15.470;2024-01-15T07:34:42;82.77;;;53.17;;
44048;SDS011;29717;47.028;15.470;2024-01-15T07:37:08;73.93;;;46.00;;
44048;SDS011;29717;47.028;15.470;2024-01-15T07:39:35;74.20;;;43.50;;
44048;SDS011;29717;47.028;15.470;2024-01-15T07:42:02;75.73;;;45.10;;
44048;SDS011;29717;47.028;15.470;2024-01-15T07:44:29;80.47;;;47.80;;
44048;SDS011;29717;47.028;15.470;2024-01-15T07:46:55;81.50;;;47.03;;
44048;SDS011;29717;47.028;15.470;2024-01-15T07:49:23;74.00;;;44.70;;
44048;SDS011;29717;47.028;15.470;2024-01-15T07:51:50;67.30;;;42.23;;
44048;SDS011;29717;47.028;15.470;2024-01-15T07:54:17;74.60;;;44.20;;
44048;SDS011;29717;47.028;15.470;2024-01-15T07:59:28;67.50;;;41.60;;
44048;SDS011;29717;47.028;15.470;2024-01-15T08:01:55;65.60;;;42.60;;
44048;SDS011;29717;47.028;15.470;2024-01-15T08:04:21;66.47;;;40.87;;
44048;SDS011;29717;47.028;15.470;2024-01-15T08:06:49;65.80;;;40.37;;
44048;SDS011;29717;47.028;15.470;2024-01-15T08:09:16;64.67;;;39.13;;
44048;SDS011;29717;47.028;15.470;2024-01-15T08:11:43;63.57;;;38.17;;
44048;SDS011;29717;47.028;15.470;2024-01-15T08:14:10;62.87;;;38.47;;
44048;SDS011;29717;47.028;15.470;2024-01-15T08:16:36;62.47;;;38.43;;
44048;SDS011;29717;47.028;15.470;2024-01-15T08:19:03;64.43;;;38.67;;
44048;SDS011;29717;47.028;15.470;2024-01-15T08:21:30;63.37;;;38.40;;
44048;SDS011;29717;47.028;15.470;2024-01-15T08:23:59;61.13;;;37.57;;
44048;SDS011;29717;47.028;15.470;2024-01-15T08:26:27;57.93;;;36.87;;
44048;SDS011;29717;47.028;15.470;2024-01-15T08:28:54;58.83;;;35.50;;
44048;SDS011;29717;47.028;15.470;2024-01-15T08:31:20;57.30;;;35.03;;
44048;SDS011;29717;47.028;15.470;2024-01-15T08:33:47;59.17;;;36.07;;
44048;SDS011;29717;47.028;15.470;2024-01-15T08:36:14;56.03;;;35.10;;
44048;SDS011;29717;47.028;15.470;2024-01-15T08:38:40;55.17;;;35.60;;
44048;SDS011;29717;47.028;15.470;2024-01-15T08:41:08;55.53;;;35.93;;
44048;SDS011;29717;47.028;15.470;2024-01-15T08:43:35;54.45;;;35.65;;
44048;SDS011;29717;47.028;15.470;2024-01-15T08:46:02;56.25;;;36.28;;
44048;SDS011;29717;47.028;15.470;2024-01-15T08:48:29;54.10;;;35.97;;
44048;SDS011;29717;47.028;15.470;2024-01-15T08:50:55;53.05;;;34.60;;
44048;SDS011;29717;47.028;15.470;2024-01-15T08:53:22;52.15;;;35.65;;
44048;SDS011;29717;47.028;15.470;2024-01-15T08:55:49;50.55;;;34.95;;
44048;SDS011;29717;47.028;15.470;2024-01-15T08:58:17;53.75;;;35.53;;
44048;SDS011;29717;47.028;15.470;2024-01-15T09:00:44;50.97;;;36.63;;
44048;SDS011;29717;47.028;15.470;2024-01-15T09:03:10;52.72;;;35.28;;
44048;SDS011;29717;47.028;15.470;2024-01-15T09:05:37;49.10;;;35.17;;
44048;SDS011;29717;47.028;15.470;2024-01-15T09:08:04;52.03;;;37.42;;
44048;SDS011;29717;47.028;15.470;2024-01-15T09:10:31;47.88;;;35.50;;
44048;SDS011;29717;47.028;15.470;2024-01-15T09:12:57;48.35;;;34.97;;
44048;SDS011;29717;47.028;15.470;2024-01-15T09:15:26;45.15;;;33.63;;
44048;SDS011;29717;47.028;15.470;2024-01-15T09:17:53;47.00;;;34.40;;
44048;SDS011;29717;47.028;15.470;2024-01-15T09:20:20;46.42;;;33.78;;
44048;SDS011;29717;47.028;15.470;2024-01-15T09:22:46;41.83;;;33.25;;
44048;SDS011;29717;47.028;15.470;2024-01-15T09:25:13;46.60;;;34.60;;
44048;SDS011;29717;47.028;15.470;2024-01-15T09:27:40;45.22;;;34.65;;
44048;SDS011;29717;47.028;15.470;2024-01-15T09:30:07;45.30;;;35.92;;
44048;SDS011;29717;47.028;15.470;2024-01-15T09:32:36;46.08;;;34.10;;
44048;SDS011;29717;47.028;15.470;2024-01-15T09:35:03;43.83;;;33.70;;
44048;SDS011;29717;47.028;15.470;2024-01-15T09:37:30;44.95;;;34.67;;
44048;SDS011;29717;47.028;15.470;2024-01-15T09:39:56;46.42;;;34.97;;
44048;SDS011;29717;47.028;15.470;2024-01-15T09:42:23;45.17;;;35.08;;
44048;SDS011;29717;47.028;15.470;2024-01-15T09:44:51;43.80;;;33.97;;
44048;SDS011;29717;47.028;15.470;2024-01-15T09:47:18;42.95;;;33.65;;
44048;SDS011;29717;47.028;15.470;2024-01-15T09:49:47;42.75;;;33.88;;
44048;SDS011;29717;47.028;15.470;2024-01-15T09:52:13;37.85;;;30.95;;
44048;SDS011;29717;47.028;15.470;2024-01-15T09:54:43;38.60;;;28.00;;
44048;SDS011;29717;47.028;15.470;2024-01-15T09:57:10;34.28;;;27.40;;
44048;SDS011;29717;47.028;15.470;2024-01-15T09:59:37;32.40;;;25.40;;
44048;SDS011;29717;47.028;15.470;2024-01-15T10:02:04;34.88;;;25.55;;
44048;SDS011;29717;47.028;15.470;2024-01-15T10:04:31;32.53;;;25.67;;
44048;SDS011;29717;47.028;15.470;2024-01-15T10:07:00;33.15;;;23.60;;
44048;SDS011;29717;47.028;15.470;2024-01-15T10:09:27;30.10;;;24.95;;
44048;SDS011;29717;47.028;15.470;2024-01-15T10:11:54;33.35;;;24.83;;
44048;SDS011;29717;47.028;15.470;2024-01-15T10:14:21;34.10;;;24.90;;
44048;SDS011;29717;47.028;15.470;2024-01-15T10:16:48;29.90;;;22.40;;
44048;SDS011;29717;47.028;15.470;2024-01-15T10:19:15;26.33;;;21.25;;
44048;SDS011;29717;47.028;15.470;2024-01-15T10:21:41;32.17;;;21.33;;
44048;SDS011;29717;47.028;15.470;2024-01-15T10:24:10;28.33;;;20.63;;
44048;SDS011;29717;47.028;15.470;2024-01-15T10:26:36;25.95;;;19.55;;
44048;SDS011;29717;47.028;15.470;2024-01-15T10:29:03;25.38;;;21.52;;
44048;SDS011;29717;47.028;15.470;2024-01-15T10:31:30;26.38;;;20.15;;
44048;SDS011;29717;47.028;15.470;2024-01-15T10:34:02;24.35;;;19.45;;
44048;SDS011;29717;47.028;15.470;2024-01-15T10:36:36;22.90;;;17.83;;
44048;SDS011;29717;47.028;15.470;2024-01-15T10:39:05;21.98;;;17.73;;
44048;SDS011;29717;47.028;15.470;2024-01-15T10:41:34;22.63;;;16.85;;
44048;SDS011;29717;47.028;15.470;2024-01-15T10:44:01;23.80;;;15.32;;
44048;SDS011;29717;47.028;15.470;2024-01-15T10:46:27;16.67;;;14.88;;
44048;SDS011;29717;47.028;15.470;2024-01-15T10:48:55;18.27;;;14.98;;
44048;SDS011;29717;47.028;15.470;2024-01-15T10:51:21;17.90;;;15.30;;
44048;SDS011;29717;47.028;15.470;2024-01-15T10:53:48;18.88;;;15.05;;
44048;SDS011;29717;47.028;15.470;2024-01-15T10:56:16;20.30;;;15.27;;
44048;SDS011;29717;47.028;15.470;2024-01-15T10:58:44;17.17;;;15.32;;
44048;SDS011;29717;47.028;15.470;2024-01-15T11:01:11;18.17;;;15.38;;
44048;SDS011;29717;47.028;15.470;2024-01-15T11:03:38;20.33;;;16.00;;
44048;SDS011;29717;47.028;15.470;2024-01-15T11:06:10;19.55;;;15.98;;
44048;SDS011;29717;47.028;15.470;2024-01-15T11:08:42;21.50;;;15.80;;
44048;SDS011;29717;47.028;15.470;2024-01-15T11:11:09;21.35;;;16.42;;
44048;SDS011;29717;47.028;15.470;2024-01-15T11:13:41;20.10;;;16.38;;
44048;SDS011;29717;47.028;15.470;2024-01-15T11:16:11;17.98;;;15.60;;
44048;SDS011;29717;47.028;15.470;2024-01-15T11:18:39;20.02;;;16.42;;
44048;SDS011;29717;47.028;15.470;2024-01-15T11:23:50;14.98;;;13.30;;
44048;SDS011;29717;47.028;15.470;2024-01-15T11:26:30;13.35;;;11.98;;
44048;SDS011;29717;47.028;15.470;2024-01-15T11:28:57;14.13;;;12.68;;
44048;SDS011;29717;47.028;15.470;2024-01-15T11:31:27;16.23;;;13.63;;
44048;SDS011;29717;47.028;15.470;2024-01-15T11:33:54;15.68;;;13.63;;
44048;SDS011;29717;47.028;15.470;2024-01-15T11:36:21;14.52;;;13.00;;
44048;SDS011;29717;47.028;15.470;2024-01-15T11:38:48;14.82;;;11.55;;
44048;SDS011;29717;47.028;15.470;2024-01-15T11:41:15;13.80;;;12.38;;
44048;SDS011;29717;47.028;15.470;2024-01-15T11:43:41;14.82;;;12.82;;
44048;SDS011;29717;47.028;15.470;2024-01-15T11:46:11;14.52;;;12.38;;
44048;SDS011;29717;47.028;15.470;2024-01-15T11:48:43;15.55;;;13.18;;
44048;SDS011;29717;47.028;15.470;2024-01-15T11:51:11;17.08;;;14.02;;
44048;SDS011;29717;47.028;15.470;2024-01-15T11:53:40;16.55;;;13.23;;
44048;SDS011;29717;47.028;15.470;2024-01-15T11:56:11;14.52;;;12.82;;
44048;SDS011;29717;47.028;15.470;2024-01-15T11:58:39;17.95;;;12.75;;
44048;SDS011;29717;47.028;15.470;2024-01-15T12:01:06;20.52;;;14.68;;
44048;SDS011;29717;47.028;15.470;2024-01-15T12:03:33;15.77;;;13.15;;
44048;SDS011;29717;47.028;15.470;2024-01-15T12:06:01;16.33;;;13.68;;
44048;SDS011;29717;47.028;15.470;2024-01-15T12:08:28;16.50;;;14.27;;
44048;SDS011;29717;47.028;15.470;2024-01-15T12:10:55;15.60;;;13.52;;
44048;SDS011;29717;47.028;15.470;2024-01-15T12:13:22;18.10;;;13.98;;
44048;SDS011;29717;47.028;15.470;2024-01-15T12:15:48;16.42;;;14.73;;
44048;SDS011;29717;47.028;15.470;2024-01-15T12:18:16;16.55;;;13.43;;
44048;SDS011;29717;47.028;15.470;2024-01-15T12:20:43;23.17;;;14.00;;
44048;SDS011;29717;47.028;15.470;2024-01-15T12:23:13;15.25;;;12.68;;
44048;SDS011;29717;47.028;15.470;2024-01-15T12:25:40;15.00;;;13.18;;
44048;SDS011;29717;47.028;15.470;2024-01-15T12:28:07;15.90;;;12.88;;
44048;SDS011;29717;47.028;15.470;2024-01-15T12:30:34;13.38;;;11.85;;
44048;SDS011;29717;47.028;15.470;2024-01-15T12:33:02;14.60;;;13.05;;
44048;SDS011;29717;47.028;15.470;2024-01-15T12:35:30;15.57;;;13.70;;
44048;SDS011;29717;47.028;15.470;2024-01-15T12:37:57;15.07;;;13.20;;
44048;SDS011;29717;47.028;15.470;2024-01-15T12:40:27;18.95;;;14.23;;
44048;SDS011;29717;47.028;15.470;2024-01-15T12:42:53;17.38;;;14.55;;
44048;SDS011;29717;47.028;15.470;2024-01-15T12:45:21;17.73;;;14.70;;
44048;SDS011;29717;47.028;15.470;2024-01-15T12:47:47;19.30;;;14.07;;
44048;SDS011;29717;47.028;15.470;2024-01-15T12:50:15;16.02;;;13.68;;
44048;SDS011;29717;47.028;15.470;2024-01-15T12:52:42;17.73;;;13.77;;
44048;SDS011;29717;47.028;15.470;2024-01-15T12:55:09;18.55;;;12.48;;
44048;SDS011;29717;47.028;15.470;2024-01-15T12:57:37;14.75;;;12.90;;
44048;SDS011;29717;47.028;15.470;2024-01-15T13:00:05;15.35;;;12.43;;
44048;SDS011;29717;47.028;15.470;2024-01-15T13:02:32;13.13;;;11.45;;
44048;SDS011;29717;47.028;15.470;2024-01-15T13:04:59;19.98;;;13.45;;
44048;SDS011;29717;47.028;15.470;2024-01-15T13:07:29;15.85;;;11.95;;
44048;SDS011;29717;47.028;15.470;2024-01-15T13:09:55;13.00;;;11.02;;
44048;SDS011;29717;47.028;15.470;2024-01-15T13:12:22;14.52;;;11.35;;
44048;SDS011;29717;47.028;15.470;2024-01-15T13:14:50;13.60;;;11.93;;
44048;SDS011;29717;47.028;15.470;2024-01-15T13:17:17;14.05;;;11.52;;
44048;SDS011;29717;47.028;15.470;2024-01-15T13:19:46;13.05;;;10.85;;
44048;SDS011;29717;47.028;15.470;2024-01-15T13:22:12;12.88;;;10.98;;
44048;SDS011;29717;47.028;15.470;2024-01-15T13:24:40;13.15;;;11.75;;
44048;SDS011;29717;47.028;15.470;2024-01-15T13:27:07;13.23;;;11.57;;
44048;SDS011;29717;47.028;15.470;2024-01-15T13:29:34;13.70;;;10.90;;
44048;SDS011;29717;47.028;15.470;2024-01-15T13:32:02;14.05;;;10.88;;
44048;SDS011;29717;47.028;15.470;2024-01-15T13:34:30;16.35;;;10.65;;
44048;SDS011;29717;47.028;15.470;2024-01-15T13:36:57;11.63;;;10.40;;
44048;SDS011;29717;47.028;15.470;2024-01-15T13:39:23;11.15;;;9.98;;
44048;SDS011;29717;47.028;15.470;2024-01-15T13:41:50;11.50;;;10.30;;
44048;SDS011;29717;47.028;15.470;2024-01-15T13:44:17;11.15;;;9.85;;
44048;SDS011;29717;47.028;15.470;2024-01-15T13:46:43;16.73;;;10.48;;
44048;SDS011;29717;47.028;15.470;2024-01-15T13:49:11;11.82;;;10.50;;
44048;SDS011;29717;47.028;15.470;2024-01-15T13:51:39;14.00;;;9.82;;
44048;SDS011;29717;47.028;15.470;2024-01-15T13:54:06;15.50;;;9.57;;
44048;SDS011;29717;47.028;15.470;2024-01-15T13:56:32;13.18;;;9.95;;
44048;SDS011;29717;47.028;15.470;2024-01-15T13:59:00;11.18;;;9.90;;
44048;SDS011;29717;47.028;15.470;2024-01-15T14:01:29;13.00;;;10.73;;
44048;SDS011;29717;47.028;15.470;2024-01-15T14:03:56;11.80;;;10.15;;
44048;SDS011;29717;47.028;15.470;2024-01-15T14:06:25;13.48;;;11.40;;
44048;SDS011;29717;47.028;15.470;2024-01-15T14:08:52;12.52;;;10.38;;
44048;SDS011;29717;47.028;15.470;2024-01-15T14:11:19;12.80;;;9.82;;
44048;SDS011;29717;47.028;15.470;2024-01-15T14:13:45;13.40;;;9.82;;